createdAt,value
2023-05-24T00:01:28.886Z,82.81
2023-05-24T00:04:02.055Z,82.52
2023-05-24T00:06:36.220Z,82.83
2023-05-24T00:09:09.151Z,82.17
2023-05-24T00:11:39.422Z,81.90
2023-05-24T00:14:09.410Z,82.05
2023-05-24T00:16:39.850Z,81.77
2023-05-24T00:19:18.900Z,82.26
2023-05-24T00:21:50.483Z,82.38
2023-05-24T00:24:20.993Z,81.32
2023-05-24T00:26:51.434Z,80.96
2023-05-24T00:29:21.705Z,81.30
2023-05-24T00:31:53.704Z,81.11
2023-05-24T00:34:29.352Z,81.45
2023-05-24T00:37:00.911Z,81.49
2023-05-24T00:39:33.510Z,82.20
2023-05-24T00:42:03.859Z,81.75
2023-05-24T00:44:36.867Z,81.88
2023-05-24T00:47:07.618Z,81.89
2023-05-24T00:49:40.602Z,82.08
2023-05-24T00:52:17.532Z,82.36
2023-05-24T00:54:47.942Z,82.68
2023-05-24T00:57:19.168Z,82.71
2023-05-24T00:59:49.833Z,83.18
2023-05-24T01:02:20.973Z,83.26
2023-05-24T01:04:56.492Z,82.75
2023-05-24T01:07:38.107Z,82.62
2023-05-24T01:10:17.564Z,82.98
2023-05-24T01:12:59.337Z,82.89
2023-05-24T01:15:46.171Z,82.77
2023-05-24T01:18:26.372Z,83.46
2023-05-24T01:21:24.037Z,83.06
2023-05-24T01:24:07.741Z,83.54
2023-05-24T01:26:43.108Z,83.44
2023-05-24T01:29:17.022Z,83.58
2023-05-24T01:31:50.699Z,83.25
2023-05-24T01:34:21.058Z,83.59
2023-05-24T01:36:54.008Z,83.40
2023-05-24T01:39:25.172Z,83.52
2023-05-24T01:42:10.717Z,83.54
2023-05-24T01:44:50.833Z,83.20
2023-05-24T01:47:31.805Z,83.21
2023-05-24T01:50:10.261Z,83.22
2023-05-24T01:52:47.086Z,82.89
2023-05-24T01:55:20.300Z,82.91
2023-05-24T01:57:53.626Z,82.60
2023-05-24T02:00:26.961Z,82.80
2023-05-24T02:03:02.489Z,82.74
2023-05-24T02:05:34.958Z,82.89
2023-05-24T02:08:06.280Z,82.73
2023-05-24T02:10:38.840Z,82.25
2023-05-24T02:13:12.182Z,82.47
2023-05-24T02:15:46.818Z,82.60
2023-05-24T02:18:18.896Z,82.75
2023-05-24T02:20:49.187Z,82.40
2023-05-24T02:23:23.427Z,82.42
2023-05-24T02:25:53.702Z,82.48
2023-05-24T02:28:23.685Z,82.76
2023-05-24T02:30:57.808Z,82.83
2023-05-24T02:33:31.096Z,82.86
2023-05-24T02:36:01.492Z,82.87
2023-05-24T02:38:33.447Z,83.04
2023-05-24T02:41:03.737Z,83.36
2023-05-24T02:43:33.644Z,83.73
2023-05-24T02:46:06.637Z,83.44
2023-05-24T02:48:37.063Z,83.73
2023-05-24T02:51:07.398Z,83.25
2023-05-24T02:53:37.741Z,83.48
2023-05-24T02:56:08.964Z,82.92
2023-05-24T02:58:40.826Z,82.82
2023-05-24T03:01:13.862Z,82.71
2023-05-24T03:03:47.143Z,82.28
2023-05-24T03:06:17.758Z,82.34
2023-05-24T03:08:51.333Z,82.21
2023-05-24T03:11:24.279Z,82.73
2023-05-24T03:13:55.149Z,83.09
2023-05-24T03:16:28.389Z,82.82
2023-05-24T03:19:00.256Z,81.95
2023-05-24T03:21:33.232Z,82.12
2023-05-24T03:24:06.819Z,81.48
2023-05-24T03:26:37.109Z,81.17
2023-05-24T03:29:09.675Z,81.10
2023-05-24T03:31:42.627Z,80.09
2023-05-24T03:34:13.578Z,79.16
2023-05-24T03:36:43.797Z,79.12
2023-05-24T03:39:14.009Z,77.89
2023-05-24T03:41:44.454Z,78.17
2023-05-24T03:44:14.720Z,77.77
2023-05-24T03:46:47.239Z,76.39
2023-05-24T03:49:18.665Z,76.73
2023-05-24T03:51:48.980Z,76.09
2023-05-24T03:54:19.843Z,75.51
2023-05-24T03:56:50.378Z,75.16
2023-05-24T03:59:20.854Z,75.91
2023-05-24T04:01:53.732Z,75.21
2023-05-24T04:04:24.976Z,74.72
2023-05-24T04:06:58.631Z,74.47
2023-05-24T04:09:28.953Z,74.56
2023-05-24T04:12:08.501Z,74.42
2023-05-24T04:14:38.799Z,73.55
2023-05-24T04:17:12.698Z,73.32
2023-05-24T04:19:43.026Z,72.72
2023-05-24T04:22:16.108Z,70.39
2023-05-24T04:24:46.662Z,66.80
2023-05-24T04:27:18.247Z,64.17
2023-05-24T04:29:54.717Z,63.26
2023-05-24T04:32:30.648Z,65.35
2023-05-24T04:35:02.877Z,66.13
2023-05-24T04:37:33.487Z,67.59
2023-05-24T04:40:04.522Z,68.97
2023-05-24T04:42:34.799Z,69.87
2023-05-24T04:45:04.953Z,70.18
2023-05-24T04:47:37.879Z,70.01
2023-05-24T04:50:09.338Z,70.78
2023-05-24T04:52:39.738Z,70.89
2023-05-24T04:55:11.002Z,70.00
2023-05-24T04:57:41.353Z,70.24
2023-05-24T05:00:14.205Z,69.68
2023-05-24T05:02:47.272Z,68.99
2023-05-24T05:05:17.969Z,67.75
2023-05-24T05:07:48.318Z,67.28
2023-05-24T05:10:23.658Z,64.87
2023-05-24T05:12:54.151Z,59.66
2023-05-24T05:15:25.969Z,57.48
2023-05-24T05:17:58.862Z,54.76
2023-05-24T05:20:29.259Z,53.13
2023-05-24T05:23:02.203Z,50.41
2023-05-24T05:25:32.614Z,49.73
2023-05-24T05:28:03.006Z,50.77
2023-05-24T05:30:33.233Z,51.89
2023-05-24T05:33:06.439Z,50.87
2023-05-24T05:35:36.746Z,50.29
2023-05-24T05:38:07.418Z,50.54
2023-05-24T05:40:37.900Z,51.56
2023-05-24T05:43:08.737Z,51.13
2023-05-24T05:45:39.000Z,50.59
2023-05-24T05:48:12.787Z,51.83
2023-05-24T05:50:43.330Z,54.04
2023-05-24T05:53:18.426Z,54.07
2023-05-24T05:55:48.938Z,55.16
2023-05-24T05:58:19.243Z,56.87
2023-05-24T06:00:49.512Z,57.78
2023-05-24T06:03:25.547Z,57.77
2023-05-24T06:05:56.205Z,59.06
2023-05-24T06:08:26.607Z,59.60
2023-05-24T06:10:56.813Z,58.91
2023-05-24T06:13:28.713Z,59.82
2023-05-24T06:15:59.151Z,59.87
2023-05-24T06:18:34.893Z,59.87
2023-05-24T06:21:05.214Z,60.37
2023-05-24T06:23:35.557Z,59.85
2023-05-24T06:26:06.038Z,59.14
2023-05-24T06:28:36.469Z,59.67
2023-05-24T06:31:09.071Z,58.02
2023-05-24T06:33:52.486Z,58.46
2023-05-24T06:36:26.633Z,58.13
2023-05-24T06:38:59.284Z,58.12
2023-05-24T06:41:30.176Z,59.59
2023-05-24T06:44:00.453Z,58.66
2023-05-24T06:46:30.765Z,57.69
2023-05-24T06:49:07.443Z,57.35
2023-05-24T06:51:38.389Z,57.50
2023-05-24T06:54:11.433Z,56.69
2023-05-24T06:56:41.754Z,56.24
2023-05-24T06:59:11.996Z,57.32
2023-05-24T07:01:43.733Z,57.57
2023-05-24T07:04:16.765Z,57.40
2023-05-24T07:06:47.089Z,56.77
2023-05-24T07:09:17.537Z,55.69
2023-05-24T07:11:48.024Z,56.29
2023-05-24T07:14:19.789Z,54.39
2023-05-24T07:16:52.506Z,51.58
2023-05-24T07:19:29.401Z,51.31
2023-05-24T07:22:00.128Z,48.48
2023-05-24T07:24:30.863Z,48.46
2023-05-24T07:27:01.219Z,48.55
2023-05-24T07:29:31.733Z,48.64
2023-05-24T07:32:02.126Z,48.01
2023-05-24T07:34:35.235Z,48.88
2023-05-24T07:37:08.502Z,48.88
2023-05-24T07:39:39.218Z,46.55
2023-05-24T07:42:09.729Z,43.80
2023-05-24T07:44:40.801Z,43.60
2023-05-24T07:47:12.137Z,46.14
2023-05-24T07:49:45.354Z,46.12
2023-05-24T07:52:15.602Z,44.84
2023-05-24T07:54:45.860Z,43.57
2023-05-24T07:57:16.116Z,42.25
2023-05-24T07:59:46.378Z,39.08
2023-05-24T08:02:17.272Z,38.63
2023-05-24T08:04:50.214Z,39.29
2023-05-24T08:07:21.612Z,39.52
2023-05-24T08:09:52.028Z,40.00
2023-05-24T08:12:22.281Z,41.47
2023-05-24T08:14:52.678Z,41.17
2023-05-24T08:17:22.931Z,38.54
2023-05-24T08:19:56.489Z,41.31
2023-05-24T08:22:26.850Z,43.40
2023-05-24T08:24:57.630Z,43.10
2023-05-24T08:27:29.076Z,41.49
2023-05-24T08:29:59.445Z,38.78
2023-05-24T08:32:29.816Z,38.52
2023-05-24T08:35:14.953Z,39.42
2023-05-24T08:37:50.013Z,41.42
2023-05-24T08:40:20.661Z,42.04
2023-05-24T08:42:52.874Z,42.45
2023-05-24T08:45:25.067Z,43.32
2023-05-24T08:47:55.869Z,43.92
2023-05-24T08:50:34.931Z,44.48
2023-05-24T08:53:05.675Z,44.33
2023-05-24T08:55:38.968Z,44.19
2023-05-24T08:58:09.920Z,44.56
2023-05-24T09:00:41.348Z,43.51
2023-05-24T09:03:13.304Z,44.33
2023-05-24T09:05:47.243Z,44.29
2023-05-24T09:08:20.963Z,45.07
2023-05-24T09:10:55.341Z,46.83
2023-05-24T09:13:27.260Z,43.40
2023-05-24T09:15:57.614Z,43.40
2023-05-24T09:18:27.917Z,42.53
2023-05-24T09:21:00.898Z,43.03
2023-05-24T09:23:31.658Z,44.87
2023-05-24T09:26:09.935Z,44.40
2023-05-24T09:28:42.042Z,44.87
2023-05-24T09:31:12.647Z,46.53
2023-05-24T09:33:43.573Z,46.23
2023-05-24T09:36:20.556Z,47.15
2023-05-24T09:38:51.976Z,47.99
2023-05-24T09:41:26.214Z,48.33
2023-05-24T09:43:56.643Z,48.85
2023-05-24T09:46:27.414Z,48.82
2023-05-24T09:49:03.752Z,47.73
2023-05-24T09:51:39.882Z,47.19
2023-05-24T09:54:09.966Z,49.68
2023-05-24T09:56:43.361Z,49.61
2023-05-24T09:59:14.275Z,50.60
2023-05-24T10:01:44.915Z,50.58
2023-05-24T10:04:15.736Z,53.03
2023-05-24T10:06:50.437Z,53.30
2023-05-24T10:09:20.932Z,53.92
2023-05-24T10:11:51.952Z,54.70
2023-05-24T10:14:22.963Z,56.30
2023-05-24T10:16:53.427Z,56.12
2023-05-24T10:19:24.446Z,56.99
2023-05-24T10:21:59.421Z,55.93
2023-05-24T10:24:43.025Z,56.42
2023-05-24T10:27:18.616Z,58.44
2023-05-24T10:30:00.113Z,59.50
2023-05-24T10:32:33.509Z,59.98
2023-05-24T10:35:04.106Z,59.72
2023-05-24T10:37:37.384Z,61.31
2023-05-24T10:40:10.284Z,62.29
2023-05-24T10:42:42.808Z,65.01
2023-05-24T10:45:37.524Z,68.10
2023-05-24T10:48:36.450Z,68.41
2023-05-24T10:51:36.878Z,71.45
2023-05-24T10:54:21.774Z,72.25
2023-05-24T10:56:53.795Z,72.11
2023-05-24T10:59:44.623Z,72.86
2023-05-24T11:02:16.870Z,72.82
2023-05-24T11:04:50.707Z,72.95
2023-05-24T11:07:22.275Z,72.15
2023-05-24T11:10:02.885Z,72.29
2023-05-24T11:12:38.867Z,70.98
2023-05-24T11:15:12.752Z,71.82
2023-05-24T11:18:12.953Z,71.73
2023-05-24T11:20:45.427Z,70.92
2023-05-24T11:23:18.401Z,70.17
2023-05-24T11:25:52.731Z,68.04
2023-05-24T11:28:24.024Z,66.56
2023-05-24T11:30:54.480Z,67.62
2023-05-24T11:33:27.464Z,67.21
2023-05-24T11:35:58.423Z,67.52
2023-05-24T11:38:30.766Z,64.20
2023-05-24T11:41:04.534Z,63.81
2023-05-24T11:43:34.875Z,65.02
2023-05-24T11:46:05.650Z,63.85
2023-05-24T11:48:36.333Z,62.14
2023-05-24T11:51:08.406Z,61.14
2023-05-24T11:53:41.572Z,59.60
2023-05-24T11:56:14.491Z,56.43
2023-05-24T11:58:51.984Z,57.73
2023-05-24T12:01:29.702Z,54.61
2023-05-24T12:04:02.243Z,54.87
2023-05-24T12:06:38.508Z,54.51
2023-05-24T12:09:13.465Z,51.28
2023-05-24T12:11:51.039Z,53.25
2023-05-24T12:14:22.985Z,52.87
2023-05-24T12:16:53.646Z,49.60
2023-05-24T12:19:32.920Z,51.11
2023-05-24T12:22:05.341Z,49.24
2023-05-24T12:24:35.999Z,48.07
2023-05-24T12:27:10.345Z,48.30
2023-05-24T12:29:43.703Z,48.05
2023-05-24T12:32:15.651Z,48.53
2023-05-24T12:34:47.956Z,45.65
2023-05-24T12:37:18.818Z,45.33
2023-05-24T12:39:49.102Z,46.60
2023-05-24T12:42:27.150Z,46.65
2023-05-24T12:44:57.619Z,45.46
2023-05-24T12:47:28.002Z,44.39
2023-05-24T12:49:58.734Z,44.78
2023-05-24T12:52:34.292Z,44.58
2023-05-24T12:55:04.674Z,44.03
2023-05-24T12:57:37.897Z,44.49
2023-05-24T13:00:11.115Z,44.08
2023-05-24T13:02:43.396Z,43.67
2023-05-24T13:05:14.029Z,44.32
2023-05-24T13:07:47.854Z,44.55
2023-05-24T13:10:18.210Z,44.68
2023-05-24T13:12:51.188Z,43.79
2023-05-24T13:15:24.334Z,44.13
2023-05-24T13:17:55.023Z,45.49
2023-05-24T13:20:25.517Z,45.63
2023-05-24T13:22:55.833Z,45.59
2023-05-24T13:25:26.987Z,45.71
2023-05-24T13:28:00.269Z,46.66
2023-05-24T13:30:30.646Z,45.07
2023-05-24T13:33:01.631Z,45.26
2023-05-24T13:35:33.218Z,46.62
2023-05-24T13:38:06.272Z,45.20
2023-05-24T13:40:38.332Z,44.98
2023-05-24T13:43:13.056Z,45.35
2023-05-24T13:45:43.396Z,44.99
2023-05-24T13:48:14.078Z,45.39
2023-05-24T13:50:45.192Z,44.87
2023-05-24T13:53:15.754Z,44.95
2023-05-24T13:55:46.046Z,46.31
2023-05-24T13:58:21.613Z,47.52
2023-05-24T14:00:54.748Z,47.36
2023-05-24T14:03:27.165Z,47.05
2023-05-24T14:05:57.578Z,47.15
2023-05-24T14:08:27.952Z,46.95
2023-05-24T14:10:58.352Z,47.82
2023-05-24T14:14:32.895Z,47.76
2023-05-24T14:16:22.178Z,49.67
2023-05-24T14:18:53.006Z,48.62
2023-05-24T14:21:27.590Z,48.82
2023-05-24T14:23:58.182Z,49.05
2023-05-24T14:26:28.864Z,49.23
2023-05-24T14:29:01.922Z,48.53
2023-05-24T14:31:35.879Z,47.71
2023-05-24T14:34:06.275Z,48.02
2023-05-24T14:36:36.846Z,47.71
2023-05-24T14:39:07.534Z,47.07
2023-05-24T14:41:38.160Z,46.84
2023-05-24T14:44:11.126Z,46.71
2023-05-24T14:46:41.577Z,46.43
2023-05-24T14:49:11.968Z,46.33
2023-05-24T14:51:42.352Z,45.49
2023-05-24T14:54:14.795Z,46.74
2023-05-24T14:56:47.534Z,45.90
2023-05-24T14:59:20.444Z,46.94
2023-05-24T15:01:50.793Z,46.92
2023-05-24T15:04:23.217Z,47.54
2023-05-24T15:06:53.467Z,48.32
2023-05-24T15:09:23.825Z,49.94
2023-05-24T15:11:56.569Z,49.13
2023-05-24T15:14:29.564Z,49.21
2023-05-24T15:16:59.930Z,49.47
2023-05-24T15:19:30.756Z,50.40
2023-05-24T15:22:01.090Z,50.60
2023-05-24T15:24:31.433Z,50.99
2023-05-24T15:27:02.057Z,51.48
2023-05-24T15:29:34.973Z,52.90
2023-05-24T15:32:05.276Z,53.77
2023-05-24T15:34:35.643Z,53.35
2023-05-24T15:37:05.907Z,54.14
2023-05-24T15:39:37.719Z,54.87
2023-05-24T15:42:11.127Z,56.26
2023-05-24T15:44:44.120Z,55.52
2023-05-24T15:47:17.570Z,54.74
2023-05-24T15:52:19.016Z,53.34
2023-05-24T15:54:51.421Z,52.78
2023-05-24T15:57:22.258Z,52.93
2023-05-24T15:59:55.932Z,52.58
2023-05-24T16:02:26.449Z,52.65
2023-05-24T16:04:57.663Z,52.16
2023-05-24T16:07:27.993Z,52.05
2023-05-24T16:09:58.262Z,52.91
2023-05-24T16:12:30.144Z,52.58
2023-05-24T16:15:03.760Z,52.54
2023-05-24T16:17:34.266Z,52.47
2023-05-24T16:20:04.900Z,52.98
2023-05-24T16:22:37.751Z,53.56
2023-05-24T16:25:09.004Z,53.80
2023-05-24T16:27:39.278Z,55.00
2023-05-24T16:30:13.256Z,54.41
2023-05-24T16:32:45.466Z,54.15
2023-05-24T16:35:15.821Z,54.54
2023-05-24T16:37:46.086Z,54.79
2023-05-24T16:40:16.435Z,54.90
2023-05-24T16:42:46.945Z,55.29
2023-05-24T16:45:22.473Z,55.58
2023-05-24T16:47:52.822Z,55.60
2023-05-24T16:50:23.063Z,55.60
2023-05-24T16:52:56.326Z,56.38
2023-05-24T16:55:26.929Z,56.28
2023-05-24T16:58:03.174Z,55.72
2023-05-24T17:00:35.772Z,55.42
2023-05-24T17:03:06.107Z,56.81
2023-05-24T17:05:37.510Z,56.45
2023-05-24T17:08:08.654Z,56.36
2023-05-24T17:10:39.218Z,56.77
2023-05-24T17:13:09.525Z,56.45
2023-05-24T17:15:42.466Z,57.00
2023-05-24T17:18:12.884Z,57.10
2023-05-24T17:20:43.365Z,57.78
2023-05-24T17:23:15.033Z,56.97
2023-05-24T17:25:45.390Z,57.06
2023-05-24T17:28:15.706Z,57.51
2023-05-24T17:30:48.822Z,57.80
2023-05-24T17:33:19.091Z,57.88
2023-05-24T17:35:49.320Z,57.83
2023-05-24T17:38:19.722Z,57.60
2023-05-24T17:40:56.077Z,57.79
2023-05-24T17:43:29.183Z,56.07
2023-05-24T17:46:07.125Z,56.57
2023-05-24T17:48:38.935Z,57.29
2023-05-24T17:51:10.877Z,57.74
2023-05-24T17:53:45.891Z,57.65
2023-05-24T17:56:18.855Z,57.79
2023-05-24T17:58:50.276Z,58.08
2023-05-24T18:01:23.989Z,58.96
2023-05-24T18:03:54.718Z,58.81
2023-05-24T18:06:25.131Z,58.78
2023-05-24T18:08:58.175Z,58.92
2023-05-24T18:11:28.735Z,59.19
2023-05-24T18:14:03.312Z,59.72
2023-05-24T18:16:39.469Z,60.09
2023-05-24T18:19:09.775Z,60.29
2023-05-24T18:21:40.429Z,60.34
2023-05-24T18:24:10.980Z,60.86
2023-05-24T18:26:41.860Z,61.77
2023-05-24T18:29:12.565Z,61.30
2023-05-24T18:31:47.178Z,61.96
2023-05-24T18:34:18.061Z,62.60
2023-05-24T18:36:48.427Z,62.82
2023-05-24T18:39:19.264Z,63.35
2023-05-24T18:41:52.226Z,63.22
2023-05-24T18:44:24.044Z,63.38
2023-05-24T18:46:58.289Z,63.75
2023-05-24T18:49:29.026Z,63.48
2023-05-24T18:52:00.639Z,63.85
2023-05-24T18:54:31.641Z,64.46
2023-05-24T18:57:04.853Z,64.41
2023-05-24T18:59:35.503Z,65.03
2023-05-24T19:02:09.340Z,65.13
2023-05-24T19:04:44.190Z,65.34
2023-05-24T19:07:14.510Z,66.04
2023-05-24T19:09:44.920Z,66.09
2023-05-24T19:12:15.292Z,65.97
2023-05-24T19:14:47.924Z,66.37
2023-05-24T19:17:24.409Z,66.07
2023-05-24T19:19:54.938Z,66.63
2023-05-24T19:22:26.422Z,66.59
2023-05-24T19:24:59.761Z,67.00
2023-05-24T19:27:30.269Z,67.00
2023-05-24T19:30:01.749Z,67.40
2023-05-24T19:32:38.785Z,67.92
2023-05-24T19:35:11.350Z,68.05
2023-05-24T19:37:41.796Z,67.74
2023-05-24T19:40:13.246Z,68.24
2023-05-24T19:42:43.649Z,68.29
2023-05-24T19:45:14.515Z,68.57
2023-05-24T19:47:48.280Z,68.71
2023-05-24T19:50:19.124Z,69.54
2023-05-24T19:52:50.406Z,69.30
2023-05-24T19:55:20.850Z,69.90
2023-05-24T19:57:51.497Z,70.03
2023-05-24T20:00:22.354Z,70.04
2023-05-24T20:02:56.061Z,70.40
2023-05-24T20:05:26.446Z,70.22
2023-05-24T20:07:56.726Z,70.41
2023-05-24T20:10:27.909Z,70.64
2023-05-24T20:12:58.238Z,71.00
2023-05-24T20:15:30.254Z,71.37
2023-05-24T20:18:03.259Z,71.36
2023-05-24T20:20:33.658Z,71.64
2023-05-24T20:23:04.126Z,71.28
2023-05-24T20:25:34.487Z,71.28
2023-05-24T20:28:12.727Z,71.56
2023-05-24T20:30:48.770Z,71.77
2023-05-24T20:33:21.702Z,71.57
2023-05-24T20:35:53.225Z,71.35
2023-05-24T20:38:23.594Z,70.81
2023-05-24T20:40:53.926Z,71.22
2023-05-24T20:43:27.099Z,70.79
2023-05-24T20:45:57.616Z,70.68
2023-05-24T20:48:31.400Z,70.78
2023-05-24T20:51:01.732Z,70.96
2023-05-24T20:53:32.034Z,71.63
2023-05-24T20:56:02.282Z,71.92
2023-05-24T20:58:32.806Z,72.39
2023-05-24T21:01:05.460Z,71.92
2023-05-24T21:03:40.573Z,72.17
2023-05-24T21:06:12.125Z,72.61
2023-05-24T21:08:42.383Z,72.63
2023-05-24T21:11:12.675Z,73.21
2023-05-24T21:13:43.705Z,73.42
2023-05-24T21:16:14.421Z,73.69
2023-05-24T21:18:46.994Z,73.47
2023-05-24T21:21:17.596Z,72.51
2023-05-24T21:23:48.366Z,72.48
2023-05-24T21:26:18.874Z,71.93
2023-05-24T21:28:49.801Z,71.73
2023-05-24T21:31:20.938Z,71.87
2023-05-24T21:33:53.956Z,71.17
2023-05-24T21:36:24.549Z,70.29
2023-05-24T21:38:57.145Z,70.75
2023-05-24T21:41:27.482Z,72.64
2023-05-24T21:43:57.752Z,73.38
2023-05-24T21:46:29.349Z,74.34
2023-05-24T21:49:02.315Z,74.70
2023-05-24T21:51:33.309Z,74.96
2023-05-24T21:54:03.592Z,74.81
2023-05-24T21:56:36.280Z,74.63
2023-05-24T21:59:06.588Z,75.18
2023-05-24T22:01:37.169Z,75.58
2023-05-24T22:04:11.522Z,75.84
2023-05-24T22:06:42.953Z,76.17
2023-05-24T22:09:14.000Z,76.72
2023-05-24T22:11:46.966Z,77.49
2023-05-24T22:14:17.529Z,77.91
2023-05-24T22:16:51.178Z,77.87
2023-05-24T22:19:39.618Z,77.36
2023-05-24T22:22:12.757Z,76.98
2023-05-24T22:24:43.743Z,76.34
2023-05-24T22:27:14.156Z,76.25
2023-05-24T22:29:44.709Z,76.14
2023-05-24T22:32:15.253Z,75.79
2023-05-24T22:34:48.391Z,77.13
2023-05-24T22:37:19.577Z,78.00
2023-05-24T22:39:50.100Z,78.16
2023-05-24T22:42:20.621Z,77.74
2023-05-24T22:44:51.490Z,76.87
2023-05-24T22:47:23.039Z,77.17
2023-05-24T22:49:57.053Z,76.74
2023-05-24T22:52:27.626Z,76.94
2023-05-24T22:54:58.067Z,76.63
2023-05-24T22:57:28.705Z,76.84
2023-05-24T22:59:59.214Z,76.79
2023-05-24T23:02:30.313Z,76.95
2023-05-24T23:05:11.859Z,76.99
2023-05-24T23:07:42.778Z,77.52
2023-05-24T23:10:17.720Z,77.45
2023-05-24T23:12:50.864Z,77.84
2023-05-24T23:15:21.625Z,77.75
2023-05-24T23:17:52.715Z,78.32
2023-05-24T23:20:26.163Z,78.16
2023-05-24T23:22:56.799Z,78.30
2023-05-24T23:25:29.450Z,78.28
2023-05-24T23:27:59.958Z,78.20
2023-05-24T23:30:36.044Z,78.35
2023-05-24T23:33:06.669Z,78.43
2023-05-24T23:35:39.977Z,78.99
2023-05-24T23:38:12.624Z,79.11
2023-05-24T23:40:43.154Z,78.80
2023-05-24T23:43:16.419Z,78.85
2023-05-24T23:45:49.468Z,79.34
2023-05-24T23:48:20.007Z,79.51
2023-05-24T23:50:54.683Z,79.24
2023-05-24T23:53:27.751Z,79.38
2023-05-24T23:55:58.269Z,79.75
2023-05-24T23:58:32.223Z,79.44
